Time;durP1;ratioP1;P1;durP2;ratioP2;P2;SDS_P1;SDS_P2;PMS_P1;PMS_P2;Temp;Humidity;BMP_temperature;BMP_pressure;BME280_temperature;BME280_humidity;BME280_pressure;Samples;Min_cycle;Max_cycle;Signal;HPM_P1;HPM_P2
2022/04/01 00:00:08;;;;;;;;;;;21.20;42.60;;;;;;5096528;28;20010;-43
2022/04/01 00:02:35;;;;;;;;;;;21.20;42.60;;;;;;5095312;28;19924;-42
2022/04/01 00:05:03;;;;;;;;;;;21.20;42.60;;;;;;5096714;28;19924;-42
2022/04/01 00:07:30;;;;;;;;;;;21.20;42.60;;;;;;5080002;28;19970;-42
2022/04/01 00:09:57;;;;;;;;;;;21.20;42.70;;;;;;5076313;28;19974;-43
2022/04/01 00:12:24;;;;;;;;;;;21.20;43.20;;;;;;5076356;28;19970;-42
2022/04/01 00:14:50;;;;;;;;;;;21.20;42.60;;;;;;5075689;28;19924;-44
2022/04/01 00:17:17;;;;;;;;;;;21.20;42.70;;;;;;5075947;28;19946;-44
2022/04/01 00:19:45;;;;;;;;;;;21.10;42.60;;;;;;5058275;28;20292;-43
2022/04/01 00:22:12;;;;;;;;;;;21.20;42.70;;;;;;5075541;28;19925;-43
2022/04/01 00:24:39;;;;;;;;;;;21.20;42.60;;;;;;5075988;28;19990;-42
2022/04/01 00:27:06;;;;;;;;;;;21.20;42.70;;;;;;5075771;28;19928;-44
2022/04/01 00:29:33;;;;;;;;;;;21.20;42.60;;;;;;5075445;28;19970;-44
2022/04/01 00:32:01;;;;;;;;;;;21.20;42.60;;;;;;5075659;28;19961;-43
2022/04/01 00:34:29;;;;;;;;;;;21.20;42.60;;;;;;5075835;28;20264;-43
2022/04/01 00:36:57;;;;;;;;;;;21.20;42.60;;;;;;5083739;28;19977;-45
2022/04/01 00:39:24;;;;;;;;;;;21.20;42.60;;;;;;5095696;28;19924;-42
2022/04/01 00:41:52;;;;;;;;;;;21.20;42.70;;;;;;5095389;28;19950;-48
2022/04/01 00:44:23;;;;;;;;;;;21.10;42.60;;;;;;5087322;28;20312;-42
2022/04/01 00:46:52;;;;;;;;;;;21.10;42.60;;;;;;5075422;28;19974;-42
2022/04/01 00:49:20;;;;;;;;;;;21.10;42.60;;;;;;5075657;28;20015;-42
2022/04/01 00:51:48;;;;;;;;;;;21.10;42.70;;;;;;5080715;28;19924;-42
2022/04/01 00:54:16;;;;;;;;;;;21.10;42.70;;;;;;5095604;28;19978;-42
2022/04/01 00:56:44;;;;;;;;;;;21.10;42.70;;;;;;5095749;28;19993;-42
2022/04/01 00:59:11;;;;;;;;;;;21.10;42.60;;;;;;5077436;28;19924;-42
2022/04/01 01:01:40;;;;;;;;;;;21.10;42.60;;;;;;5095341;28;19924;-43
2022/04/01 01:04:08;;;;;;;;;;;21.10;42.60;;;;;;5077956;28;19975;-42
2022/04/01 01:06:40;;;;;;;;;;;21.20;42.70;;;;;;5094398;28;20375;-49
2022/04/01 01:09:07;;;;;;;;;;;21.20;42.70;;;;;;5095151;28;19950;-43
2022/04/01 01:11:37;;;;;;;;;;;21.10;42.60;;;;;;5095152;28;19967;-47
2022/04/01 01:14:05;;;;;;;;;;;21.20;42.70;;;;;;5094518;28;20025;-43
2022/04/01 01:16:32;;;;;;;;;;;21.10;42.60;;;;;;5095316;28;19924;-42
2022/04/01 01:19:04;;;;;;;;;;;21.20;42.70;;;;;;5077375;28;19932;-43
2022/04/01 01:21:32;;;;;;;;;;;21.10;42.60;;;;;;5093848;28;19931;-42
2022/04/01 01:24:00;;;;;;;;;;;21.10;42.60;;;;;;5094811;28;19928;-45
2022/04/01 01:26:27;;;;;;;;;;;21.10;42.70;;;;;;5095155;28;19935;-42
2022/04/01 01:28:55;;;;;;;;;;;21.10;42.60;;;;;;5077118;28;19928;-49
2022/04/01 01:31:22;;;;;;;;;;;21.10;42.70;;;;;;5095014;28;20010;-42
2022/04/01 01:33:50;;;;;;;;;;;21.10;42.70;;;;;;5094624;28;19928;-44
2022/04/01 01:36:17;;;;;;;;;;;21.10;42.70;;;;;;5095803;28;19931;-48
2022/04/01 01:38:44;;;;;;;;;;;21.10;42.70;;;;;;5093523;28;19924;-48
2022/04/01 01:41:11;;;;;;;;;;;21.10;42.70;;;;;;5094857;28;19924;-41
2022/04/01 01:43:39;;;;;;;;;;;21.10;42.60;;;;;;5094789;28;20327;-45
2022/04/01 01:46:06;;;;;;;;;;;21.10;42.60;;;;;;5094494;28;19931;-41
2022/04/01 01:48:33;;;;;;;;;;;21.10;42.70;;;;;;5094184;28;20018;-44
2022/04/01 01:56:32;;;;;;;;;;;21.10;42.70;;;;;;5093950;28;19924;-43
2022/04/01 01:58:59;;;;;;;;;;;21.10;42.70;;;;;;5094278;28;20514;-48
2022/04/01 02:01:26;;;;;;;;;;;21.10;42.70;;;;;;5094213;28;20026;-48
2022/04/01 02:03:53;;;;;;;;;;;21.10;42.70;;;;;;5094167;28;20034;-49
2022/04/01 02:06:23;;;;;;;;;;;21.10;42.70;;;;;;5094423;28;20302;-48
2022/04/01 02:08:54;;;;;;;;;;;21.10;42.70;;;;;;5075332;28;19982;-49
2022/04/01 02:11:21;;;;;;;;;;;21.10;42.70;;;;;;5094346;28;19924;-49
2022/04/01 02:13:48;;;;;;;;;;;21.10;42.70;;;;;;5094874;28;19927;-46
2022/04/01 02:16:15;;;;;;;;;;;21.10;42.70;;;;;;5094193;28;20000;-47
2022/04/01 02:18:42;;;;;;;;;;;21.10;42.70;;;;;;5093686;28;19928;-49
2022/04/01 02:21:15;;;;;;;;;;;21.10;42.70;;;;;;5093622;28;19928;-47
2022/04/01 02:23:43;;;;;;;;;;;21.10;42.70;;;;;;5092604;28;19932;-51
2022/04/01 02:26:10;;;;;;;;;;;21.10;42.70;;;;;;5093523;28;19931;-45
2022/04/01 02:28:37;;;;;;;;;;;21.10;42.70;;;;;;5094240;28;19931;-45
2022/04/01 02:31:08;;;;;;;;;;;21.10;42.70;;;;;;5093781;28;19931;-50
2022/04/01 02:33:35;;;;;;;;;;;21.10;43.30;;;;;;5093746;28;19924;-49
2022/04/01 02:36:10;;;;;;;;;;;21.10;42.70;;;;;;5093997;28;19924;-49
2022/04/01 02:38:41;;;;;;;;;;;21.10;42.70;;;;;;5093213;28;19924;-46
2022/04/01 02:41:11;;;;;;;;;;;21.10;42.70;;;;;;5093985;28;19928;-48
2022/04/01 02:43:38;;;;;;;;;;;21.10;42.70;;;;;;5093986;28;19931;-50
2022/04/01 02:46:05;;;;;;;;;;;21.10;42.70;;;;;;5093896;28;20075;-50
2022/04/01 02:48:32;;;;;;;;;;;21.10;42.70;;;;;;5093321;28;19977;-47
2022/04/01 02:51:00;;;;;;;;;;;21.10;42.70;;;;;;5094318;28;19928;-49
2022/04/01 02:53:27;;;;;;;;;;;21.10;42.70;;;;;;5092952;28;19924;-43
2022/04/01 02:55:54;;;;;;;;;;;21.10;42.70;;;;;;5093467;28;20284;-43
2022/04/01 02:58:21;;;;;;;;;;;21.10;42.70;;;;;;5093515;28;20015;-49
2022/04/01 03:00:48;;;;;;;;;;;21.10;42.60;;;;;;5093771;28;20034;-46
2022/04/01 03:03:15;;;;;;;;;;;21.10;42.70;;;;;;5093196;28;20399;-43
2022/04/01 03:05:43;;;;;;;;;;;21.10;42.70;;;;;;5093751;28;19931;-49
2022/04/01 03:08:10;;;;;;;;;;;21.10;42.70;;;;;;5092599;28;20423;-45
2022/04/01 03:10:38;;;;;;;;;;;21.10;42.70;;;;;;5093329;28;20015;-46
2022/04/01 03:13:08;;;;;;;;;;;21.10;42.70;;;;;;5093430;28;20264;-45
2022/04/01 03:15:37;;;;;;;;;;;21.10;42.60;;;;;;5093595;28;20289;-49
2022/04/01 03:18:05;;;;;;;;;;;21.10;42.70;;;;;;5093216;28;19924;-42
2022/04/01 03:20:35;;;;;;;;;;;21.10;42.70;;;;;;5092915;28;20014;-49
2022/04/01 03:23:03;;;;;;;;;;;21.10;42.70;;;;;;5092232;28;20391;-46
2022/04/01 03:25:32;;;;;;;;;;;21.10;42.70;;;;;;5093094;28;19928;-45
2022/04/01 03:28:01;;;;;;;;;;;21.10;42.70;;;;;;5093169;28;19938;-42
2022/04/01 03:30:28;;;;;;;;;;;21.10;42.70;;;;;;5093127;28;19927;-43
2022/04/01 03:32:55;;;;;;;;;;;21.10;42.70;;;;;;5093184;28;19924;-42
2022/04/01 03:35:24;;;;;;;;;;;21.10;42.70;;;;;;5093595;28;20245;-42
2022/04/01 03:37:51;;;;;;;;;;;21.10;42.70;;;;;;5096245;28;20350;-43
2022/04/01 03:40:19;;;;;;;;;;;21.10;42.70;;;;;;5075687;28;19925;-42
2022/04/01 03:42:47;;;;;;;;;;;21.10;42.70;;;;;;5076859;28;19925;-42
2022/04/01 03:45:14;;;;;;;;;;;21.10;42.70;;;;;;5076827;28;19924;-42
2022/04/01 03:47:41;;;;;;;;;;;21.10;42.70;;;;;;5076539;28;19978;-42
2022/04/01 03:50:09;;;;;;;;;;;21.10;42.70;;;;;;5076452;28;19931;-42
2022/04/01 03:52:36;;;;;;;;;;;21.10;42.70;;;;;;5076573;28;19925;-42
2022/04/01 03:55:05;;;;;;;;;;;21.10;42.70;;;;;;5093402;28;20510;-43
2022/04/01 03:57:36;;;;;;;;;;;21.10;42.70;;;;;;5096582;28;19925;-44
2022/04/01 04:00:04;;;;;;;;;;;21.10;42.70;;;;;;5096871;28;19985;-47
2022/04/01 04:02:33;;;;;;;;;;;21.10;42.70;;;;;;5078541;28;19931;-42
2022/04/01 04:05:01;;;;;;;;;;;21.10;42.70;;;;;;5096470;28;19934;-43
2022/04/01 04:07:30;;;;;;;;;;;21.10;42.80;;;;;;5096696;28;19931;-42
2022/04/01 04:09:57;;;;;;;;;;;21.10;42.70;;;;;;5077889;28;19974;-42
2022/04/01 04:12:26;;;;;;;;;;;21.10;42.70;;;;;;5096788;28;19997;-43
2022/04/01 04:14:53;;;;;;;;;;;21.10;42.70;;;;;;5096373;28;20291;-42
2022/04/01 04:17:27;;;;;;;;;;;21.10;42.80;;;;;;5096175;28;19981;-42
2022/04/01 04:20:01;;;;;;;;;;;21.10;42.70;;;;;;5078363;28;19971;-42
2022/04/01 04:22:48;;;;;;;;;;;21.10;42.80;;;;;;5095885;28;19975;-43
2022/04/01 04:25:17;;;;;;;;;;;21.10;42.80;;;;;;5053433;28;19960;-42
2022/04/01 04:27:55;;;;;;;;;;;21.10;42.70;;;;;;5076033;28;19924;-42
2022/04/01 04:30:28;;;;;;;;;;;21.10;42.80;;;;;;5076022;28;19928;-43
2022/04/01 04:32:56;;;;;;;;;;;21.10;42.80;;;;;;5076027;28;19947;-42
2022/04/01 04:35:25;;;;;;;;;;;21.10;42.80;;;;;;5075857;28;19977;-44
2022/04/01 04:37:54;;;;;;;;;;;21.10;42.80;;;;;;5075987;28;19924;-45
2022/04/01 04:40:21;;;;;;;;;;;21.10;42.80;;;;;;5091155;28;19924;-45
2022/04/01 04:42:49;;;;;;;;;;;21.10;42.80;;;;;;5096023;28;19924;-42
2022/04/01 04:45:16;;;;;;;;;;;21.10;42.80;;;;;;5095658;28;19977;-43
2022/04/01 04:47:45;;;;;;;;;;;21.10;42.80;;;;;;5077124;28;20435;-42
2022/04/01 04:50:12;;;;;;;;;;;21.10;42.80;;;;;;5095615;28;19976;-43
2022/04/01 04:52:39;;;;;;;;;;;21.10;42.80;;;;;;5077781;28;19924;-43
2022/04/01 04:55:11;;;;;;;;;;;21.10;42.80;;;;;;5094761;28;20330;-44
2022/04/01 04:57:42;;;;;;;;;;;21.10;42.80;;;;;;5095766;28;19966;-42
2022/04/01 05:00:10;;;;;;;;;;;21.10;42.80;;;;;;5095099;28;19924;-43
2022/04/01 05:02:41;;;;;;;;;;;21.10;42.70;;;;;;5077424;28;19977;-42
2022/04/01 05:05:24;;;;;;;;;;;21.10;42.70;;;;;;5095561;28;19924;-42
2022/04/01 05:08:10;;;;;;;;;;;21.10;42.80;;;;;;5095481;28;19928;-44
2022/04/01 05:10:45;;;;;;;;;;;21.10;42.80;;;;;;5094304;28;19924;-46
2022/04/01 05:13:20;;;;;;;;;;;21.10;42.80;;;;;;5095089;28;19928;-42
2022/04/01 05:15:58;;;;;;;;;;;21.10;42.70;;;;;;5094973;28;19975;-42
2022/04/01 05:18:50;;;;;;;;;;;21.10;42.70;;;;;;5095104;28;19974;-49
2022/04/01 05:21:23;;;;;;;;;;;21.10;42.70;;;;;;5094680;28;19924;-42
2022/04/01 05:23:56;;;;;;;;;;;21.10;42.80;;;;;;5095360;28;19977;-43
2022/04/01 05:26:25;;;;;;;;;;;21.10;42.70;;;;;;5089755;28;19974;-44
2022/04/01 05:28:53;;;;;;;;;;;21.10;42.80;;;;;;5074462;28;19928;-45
2022/04/01 05:31:23;;;;;;;;;;;21.10;42.80;;;;;;5075322;28;19924;-44
2022/04/01 05:33:54;;;;;;;;;;;21.10;42.80;;;;;;5074506;28;19947;-48
2022/04/01 05:36:23;;;;;;;;;;;21.10;43.40;;;;;;5074616;28;19997;-51
2022/04/01 05:38:50;;;;;;;;;;;21.10;42.70;;;;;;5074287;28;19933;-48
2022/04/01 05:41:19;;;;;;;;;;;21.10;42.70;;;;;;5092257;28;19977;-48
2022/04/01 05:43:50;;;;;;;;;;;21.10;42.80;;;;;;5094504;28;19970;-44
2022/04/01 05:46:20;;;;;;;;;;;21.10;42.70;;;;;;5094517;28;19924;-50
2022/04/01 05:48:47;;;;;;;;;;;21.10;42.70;;;;;;5094708;28;19924;-46
2022/04/01 05:51:15;;;;;;;;;;;21.10;42.70;;;;;;5094206;28;19931;-49
2022/04/01 05:53:46;;;;;;;;;;;21.10;42.70;;;;;;5094079;28;19974;-46
2022/04/01 05:56:16;;;;;;;;;;;21.10;42.70;;;;;;5093648;28;19923;-47
2022/04/01 05:58:43;;;;;;;;;;;21.10;42.70;;;;;;5093697;28;19928;-44
2022/04/01 06:01:12;;;;;;;;;;;21.10;42.60;;;;;;5094070;28;19924;-48
2022/04/01 06:03:59;;;;;;;;;;;21.20;42.70;;;;;;5094497;28;19993;-49
2022/04/01 06:06:26;;;;;;;;;;;21.10;42.60;;;;;;5093781;28;19928;-41
2022/04/01 06:08:57;;;;;;;;;;;21.10;42.60;;;;;;5094316;28;19966;-43
2022/04/01 06:11:36;;;;;;;;;;;21.10;42.60;;;;;;5093089;28;19924;-43
2022/04/01 06:14:11;;;;;;;;;;;21.10;42.60;;;;;;5093980;28;20029;-46
2022/04/01 06:16:49;;;;;;;;;;;21.10;42.60;;;;;;5094233;28;19931;-49
2022/04/01 06:19:16;;;;;;;;;;;21.10;42.60;;;;;;5093601;28;19953;-40
2022/04/01 06:21:47;;;;;;;;;;;21.10;42.60;;;;;;5093747;28;19985;-48
2022/04/01 06:24:31;;;;;;;;;;;21.20;42.60;;;;;;5093685;28;20402;-43
2022/04/01 06:26:58;;;;;;;;;;;21.10;42.50;;;;;;5093842;28;19977;-47
2022/04/01 06:29:28;;;;;;;;;;;21.20;42.60;;;;;;5093701;28;19928;-47
2022/04/01 06:32:01;;;;;;;;;;;21.20;42.60;;;;;;5075817;28;19924;-43
2022/04/01 06:34:47;;;;;;;;;;;21.20;42.60;;;;;;5075583;28;19924;-42
2022/04/01 06:37:21;;;;;;;;;;;21.20;42.60;;;;;;5093963;28;19932;-46
2022/04/01 06:40:03;;;;;;;;;;;21.20;42.60;;;;;;5092807;28;20383;-45
2022/04/01 06:42:31;;;;;;;;;;;21.20;42.50;;;;;;5093615;28;19924;-49
2022/04/01 06:44:58;;;;;;;;;;;21.20;42.50;;;;;;5093338;28;19924;-47
2022/04/01 06:47:25;;;;;;;;;;;21.20;42.50;;;;;;5093581;28;20423;-48
2022/04/01 06:49:52;;;;;;;;;;;21.20;42.50;;;;;;5093905;28;19985;-44
2022/04/01 06:52:19;;;;;;;;;;;21.20;42.50;;;;;;5093252;28;20384;-46
2022/04/01 06:54:46;;;;;;;;;;;21.20;42.40;;;;;;5093210;28;19931;-42
2022/04/01 06:57:14;;;;;;;;;;;21.20;42.40;;;;;;5093222;28;19928;-43
2022/04/01 06:59:41;;;;;;;;;;;21.20;42.40;;;;;;5093410;28;19924;-45
2022/04/01 07:02:08;;;;;;;;;;;21.20;42.40;;;;;;5093358;28;20364;-48
2022/04/01 07:04:35;;;;;;;;;;;21.20;42.40;;;;;;5093430;28;20007;-43
2022/04/01 07:07:03;;;;;;;;;;;21.30;42.50;;;;;;5093428;28;19928;-45
2022/04/01 07:09:30;;;;;;;;;;;21.30;42.50;;;;;;5093916;28;19924;-43
2022/04/01 07:11:59;;;;;;;;;;;21.20;42.40;;;;;;5095577;28;19928;-41
2022/04/01 07:14:27;;;;;;;;;;;21.20;42.40;;;;;;5097596;28;19924;-40
2022/04/01 07:16:55;;;;;;;;;;;21.20;42.40;;;;;;5097415;28;20326;-49
2022/04/01 07:19:22;;;;;;;;;;;21.30;42.40;;;;;;5097321;28;19989;-49
2022/04/01 07:21:49;;;;;;;;;;;21.30;42.40;;;;;;5096817;28;20363;-49
2022/04/01 07:24:16;;;;;;;;;;;21.30;42.40;;;;;;5097053;28;19977;-41
2022/04/01 07:26:44;;;;;;;;;;;21.30;42.40;;;;;;5083135;28;19935;-45
2022/04/01 07:29:11;;;;;;;;;;;21.30;42.40;;;;;;5076971;28;19928;-44
2022/04/01 07:34:39;;;;;;;;;;;21.30;42.40;;;;;;5076678;28;19924;-45
2022/04/01 07:37:06;;;;;;;;;;;21.30;42.40;;;;;;5076560;28;19932;-42
2022/04/01 07:39:33;;;;;;;;;;;21.30;42.40;;;;;;5076563;28;20383;-47
2022/04/01 07:42:00;;;;;;;;;;;21.30;42.40;;;;;;5090453;28;19936;-45
2022/04/01 07:44:27;;;;;;;;;;;21.30;42.40;;;;;;5096843;28;20047;-44
2022/04/01 07:46:55;;;;;;;;;;;21.30;42.40;;;;;;5096780;28;19924;-41
2022/04/01 07:49:22;;;;;;;;;;;21.30;42.30;;;;;;5096661;28;19923;-42
2022/04/01 07:52:09;;;;;;;;;;;21.30;42.30;;;;;;5096242;28;19955;-48
2022/04/01 07:54:45;;;;;;;;;;;21.30;42.30;;;;;;5096548;28;20389;-46
2022/04/01 07:57:13;;;;;;;;;;;21.40;42.30;;;;;;5095931;28;19928;-46
2022/04/01 07:59:40;;;;;;;;;;;21.40;42.30;;;;;;5096699;28;19993;-48
2022/04/01 08:02:07;;;;;;;;;;;21.40;42.20;;;;;;5096450;28;19924;-46
2022/04/01 08:04:35;;;;;;;;;;;21.40;42.20;;;;;;5096483;28;19924;-45
2022/04/01 08:07:07;;;;;;;;;;;21.40;42.20;;;;;;5096279;28;20014;-43
2022/04/01 08:09:35;;;;;;;;;;;21.40;42.20;;;;;;5096291;28;19953;-43
2022/04/01 08:12:02;;;;;;;;;;;21.40;42.10;;;;;;5095363;28;19977;-42
2022/04/01 08:14:29;;;;;;;;;;;21.50;42.20;;;;;;5096191;28;20371;-44
2022/04/01 08:16:56;;;;;;;;;;;21.40;42.00;;;;;;5096093;28;19993;-46
2022/04/01 08:19:24;;;;;;;;;;;21.50;42.10;;;;;;5096213;28;19924;-41
2022/04/01 08:21:51;;;;;;;;;;;21.50;42.10;;;;;;5095264;28;20410;-41
2022/04/01 08:24:18;;;;;;;;;;;21.50;42.00;;;;;;5095626;28;20346;-42
2022/04/01 08:26:45;;;;;;;;;;;21.50;42.00;;;;;;5095158;28;20011;-42
2022/04/01 08:29:12;;;;;;;;;;;21.50;42.00;;;;;;5095961;28;19924;-42
2022/04/01 08:31:39;;;;;;;;;;;21.50;42.00;;;;;;5095884;28;19954;-43
2022/04/01 08:34:06;;;;;;;;;;;21.50;42.00;;;;;;5096062;28;19924;-49
2022/04/01 08:36:33;;;;;;;;;;;21.50;42.00;;;;;;5096006;28;19974;-50
2022/04/01 08:39:01;;;;;;;;;;;21.50;42.00;;;;;;5095856;28;19924;-47
2022/04/01 08:41:28;;;;;;;;;;;21.50;42.00;;;;;;5095185;28;19924;-43
2022/04/01 08:43:55;;;;;;;;;;;21.50;42.00;;;;;;5095973;28;19924;-45
2022/04/01 08:46:22;;;;;;;;;;;21.60;42.00;;;;;;5095565;28;19924;-47
2022/04/01 08:48:50;;;;;;;;;;;21.60;42.00;;;;;;5095856;28;19924;-42
2022/04/01 08:51:17;;;;;;;;;;;21.60;42.00;;;;;;5095296;28;19924;-43
2022/04/01 08:53:44;;;;;;;;;;;21.60;41.90;;;;;;5095334;28;19993;-47
2022/04/01 08:56:12;;;;;;;;;;;21.60;41.90;;;;;;5094810;28;19930;-47
2022/04/01 08:58:39;;;;;;;;;;;21.60;41.80;;;;;;5095672;28;19924;-51
2022/04/01 09:01:06;;;;;;;;;;;21.70;41.90;;;;;;5095263;28;19924;-47
2022/04/01 09:03:34;;;;;;;;;;;21.70;41.80;;;;;;5095555;28;20337;-47
2022/04/01 09:06:03;;;;;;;;;;;21.70;41.70;;;;;;5095259;28;19924;-43
2022/04/01 09:08:30;;;;;;;;;;;21.80;41.70;;;;;;5094929;28;19924;-43
2022/04/01 09:11:04;;;;;;;;;;;21.80;41.60;;;;;;5095414;28;19925;-45
2022/04/01 09:13:32;;;;;;;;;;;21.80;41.60;;;;;;5094283;28;19928;-45
2022/04/01 09:16:00;;;;;;;;;;;21.90;41.50;;;;;;5095362;28;19924;-44
2022/04/01 09:18:33;;;;;;;;;;;21.90;41.50;;;;;;5095145;28;20268;-42
2022/04/01 09:21:01;;;;;;;;;;;21.90;41.40;;;;;;5094667;28;19974;-45
2022/04/01 09:23:28;;;;;;;;;;;22.00;41.50;;;;;;5094825;28;19938;-48
2022/04/01 09:25:55;;;;;;;;;;;22.00;41.40;;;;;;5094920;28;19936;-44
2022/04/01 09:28:24;;;;;;;;;;;22.00;41.40;;;;;;5094073;28;19927;-44
2022/04/01 09:31:06;;;;;;;;;;;22.00;41.30;;;;;;5095091;28;19963;-48
2022/04/01 09:33:56;;;;;;;;;;;22.00;41.20;;;;;;5094594;28;19985;-48
2022/04/01 09:36:29;;;;;;;;;;;22.00;41.20;;;;;;5094295;28;20387;-42
2022/04/01 09:39:01;;;;;;;;;;;22.00;41.20;;;;;;5094608;28;19924;-49
2022/04/01 09:41:32;;;;;;;;;;;22.10;41.20;;;;;;5094449;28;19974;-43
2022/04/01 09:44:20;;;;;;;;;;;22.10;41.20;;;;;;5075159;28;20372;-43
2022/04/01 09:46:49;;;;;;;;;;;22.10;41.10;;;;;;5074197;28;19974;-43
2022/04/01 09:49:31;;;;;;;;;;;22.20;41.20;;;;;;5074437;28;19961;-43
2022/04/01 09:52:04;;;;;;;;;;;22.20;41.20;;;;;;5072800;28;20023;-42
2022/04/01 09:54:31;;;;;;;;;;;22.20;41.10;;;;;;5073654;28;19978;-45
2022/04/01 09:56:59;;;;;;;;;;;22.20;41.00;;;;;;5076181;28;19932;-42
2022/04/01 09:59:31;;;;;;;;;;;22.30;41.00;;;;;;5094261;28;19924;-43
2022/04/01 10:02:01;;;;;;;;;;;22.30;41.00;;;;;;5094269;28;19924;-43
2022/04/01 10:04:28;;;;;;;;;;;22.30;40.90;;;;;;5075979;28;19970;-42
2022/04/01 10:06:56;;;;;;;;;;;22.30;40.90;;;;;;5094138;28;20018;-43
2022/04/01 10:09:23;;;;;;;;;;;22.40;40.90;;;;;;5094081;28;20422;-48
2022/04/01 10:12:12;;;;;;;;;;;22.40;40.80;;;;;;5093200;28;20007;-42
2022/04/01 10:14:40;;;;;;;;;;;22.40;40.80;;;;;;5094354;28;19927;-43
2022/04/01 10:17:24;;;;;;;;;;;22.50;40.80;;;;;;5094198;28;20415;-46
2022/04/01 10:19:52;;;;;;;;;;;22.50;40.70;;;;;;5094000;28;19924;-46
2022/04/01 10:22:19;;;;;;;;;;;22.50;40.60;;;;;;5093759;28;19924;-49
2022/04/01 10:24:55;;;;;;;;;;;22.50;40.60;;;;;;5093836;28;19959;-46
2022/04/01 10:27:30;;;;;;;;;;;22.60;40.60;;;;;;5093333;28;19974;-48
2022/04/01 10:29:58;;;;;;;;;;;22.60;40.50;;;;;;5093865;28;19973;-48
2022/04/01 10:32:26;;;;;;;;;;;22.70;40.60;;;;;;5093952;28;19932;-48
2022/04/01 10:34:58;;;;;;;;;;;22.70;40.50;;;;;;5093752;28;19935;-47
2022/04/01 10:37:32;;;;;;;;;;;22.70;40.40;;;;;;5093905;28;19924;-51
2022/04/01 10:40:05;;;;;;;;;;;22.70;40.40;;;;;;5093663;28;19931;-50
2022/04/01 10:42:33;;;;;;;;;;;22.80;40.30;;;;;;5089944;28;19994;-49
2022/04/01 10:45:01;;;;;;;;;;;22.80;40.20;;;;;;5073006;28;20388;-46
2022/04/01 10:53:33;;;;;;;;;;;22.90;40.20;;;;;;5073605;28;19925;-43
2022/04/01 10:56:18;;;;;;;;;;;23.00;40.20;;;;;;5073384;28;19925;-49
2022/04/01 10:59:04;;;;;;;;;;;22.90;40.00;;;;;;5084954;28;19924;-48
2022/04/01 11:01:32;;;;;;;;;;;23.00;40.10;;;;;;5093808;28;19924;-47
2022/04/01 11:04:01;;;;;;;;;;;23.00;40.00;;;;;;5093782;28;19947;-49
2022/04/01 11:06:28;;;;;;;;;;;23.10;40.10;;;;;;5093467;28;19931;-49
2022/04/01 11:08:55;;;;;;;;;;;23.10;40.10;;;;;;5093485;28;19924;-47
2022/04/01 11:11:22;;;;;;;;;;;23.10;40.00;;;;;;5093391;28;19924;-42
2022/04/01 11:14:05;;;;;;;;;;;23.10;40.00;;;;;;5092608;28;19993;-49
2022/04/01 11:16:49;;;;;;;;;;;23.10;40.00;;;;;;5093269;28;20376;-48
2022/04/01 11:19:17;;;;;;;;;;;23.10;39.90;;;;;;5075599;28;19924;-44
2022/04/01 11:21:46;;;;;;;;;;;23.20;40.00;;;;;;5093178;28;19932;-43
2022/04/01 11:24:24;;;;;;;;;;;23.10;39.90;;;;;;5075601;28;19932;-48
2022/04/01 11:26:51;;;;;;;;;;;23.20;39.90;;;;;;5092981;28;19924;-45
2022/04/01 11:29:23;;;;;;;;;;;23.10;39.90;;;;;;5092363;28;20049;-47
2022/04/01 11:32:00;;;;;;;;;;;23.20;39.90;;;;;;5093525;28;20265;-42
2022/04/01 11:34:27;;;;;;;;;;;23.20;40.00;;;;;;5093284;28;19924;-43
2022/04/01 11:37:01;;;;;;;;;;;23.20;40.00;;;;;;5093032;28;20375;-43
2022/04/01 11:39:28;;;;;;;;;;;23.10;39.90;;;;;;5093206;28;19924;-46
2022/04/01 11:41:55;;;;;;;;;;;23.20;40.00;;;;;;5093938;28;19924;-43
2022/04/01 11:44:23;;;;;;;;;;;23.20;39.90;;;;;;5092526;28;19932;-45
2022/04/01 11:46:51;;;;;;;;;;;23.20;40.00;;;;;;5093066;28;19924;-45
2022/04/01 11:49:18;;;;;;;;;;;23.20;39.90;;;;;;5093145;28;19950;-45
2022/04/01 11:51:45;;;;;;;;;;;23.20;39.90;;;;;;5092772;28;19937;-44
2022/04/01 11:54:15;;;;;;;;;;;23.30;40.00;;;;;;5092917;28;20395;-47
2022/04/01 11:56:44;;;;;;;;;;;23.20;39.80;;;;;;5092823;28;19932;-44
2022/04/01 11:59:11;;;;;;;;;;;23.30;39.90;;;;;;5077112;28;19931;-46
2022/04/01 12:01:54;;;;;;;;;;;23.30;39.90;;;;;;5096798;28;19924;-44
2022/04/01 12:04:29;;;;;;;;;;;23.30;39.90;;;;;;5093099;28;19924;-43
2022/04/01 12:09:45;;;;;;;;;;;23.30;39.80;;;;;;5095515;28;19924;-42
2022/04/01 12:12:12;;;;;;;;;;;23.30;39.80;;;;;;5077947;28;19931;-44
2022/04/01 12:14:39;;;;;;;;;;;23.30;39.80;;;;;;5094980;28;19924;-42
2022/04/01 12:17:07;;;;;;;;;;;23.40;39.80;;;;;;5095399;28;19924;-42
2022/04/01 12:19:35;;;;;;;;;;;23.40;39.80;;;;;;5076915;28;20383;-43
2022/04/01 12:22:02;;;;;;;;;;;23.40;39.80;;;;;;5095331;28;19931;-43
2022/04/01 12:24:30;;;;;;;;;;;23.40;39.80;;;;;;5095274;28;19924;-42
2022/04/01 12:26:59;;;;;;;;;;;23.40;39.70;;;;;;5095219;28;19928;-43
2022/04/01 12:29:27;;;;;;;;;;;23.40;39.70;;;;;;5093991;28;19924;-43
2022/04/01 12:31:56;;;;;;;;;;;23.40;39.80;;;;;;5095199;28;20433;-47
2022/04/01 12:34:24;;;;;;;;;;;23.50;39.80;;;;;;5094246;28;19928;-43
2022/04/01 12:36:52;;;;;;;;;;;23.50;39.70;;;;;;5094118;28;19978;-44
2022/04/01 12:39:19;;;;;;;;;;;23.40;39.70;;;;;;5076730;28;19928;-44
2022/04/01 12:41:50;;;;;;;;;;;23.50;39.70;;;;;;5095204;28;19978;-41
2022/04/01 12:44:18;;;;;;;;;;;23.50;39.70;;;;;;5093693;28;19928;-44
2022/04/01 12:46:48;;;;;;;;;;;23.50;39.80;;;;;;5094302;28;20338;-41
2022/04/01 12:49:16;;;;;;;;;;;23.50;39.80;;;;;;5094975;28;20027;-41
2022/04/01 12:51:50;;;;;;;;;;;23.50;39.80;;;;;;5094873;28;19924;-42
2022/04/01 12:54:28;;;;;;;;;;;23.50;39.80;;;;;;5094112;28;19970;-41
2022/04/01 12:56:55;;;;;;;;;;;23.50;39.80;;;;;;5093991;28;19928;-42
2022/04/01 12:59:22;;;;;;;;;;;23.50;39.80;;;;;;5093755;28;19945;-41
2022/04/01 13:02:00;;;;;;;;;;;23.50;39.80;;;;;;5094483;28;19924;-42
2022/04/01 13:04:28;;;;;;;;;;;23.50;39.80;;;;;;5093859;28;19924;-41
2022/04/01 13:07:04;;;;;;;;;;;23.50;39.80;;;;;;5093965;28;19924;-41
2022/04/01 13:09:31;;;;;;;;;;;23.50;39.70;;;;;;5093772;28;19931;-41
2022/04/01 13:11:59;;;;;;;;;;;23.50;39.80;;;;;;5094257;28;19931;-41
2022/04/01 13:14:28;;;;;;;;;;;23.50;39.80;;;;;;5087159;28;19924;-42
2022/04/01 13:16:56;;;;;;;;;;;23.50;39.80;;;;;;5073290;28;19929;-41
2022/04/01 13:19:23;;;;;;;;;;;23.50;39.80;;;;;;5073914;28;19931;-41
2022/04/01 13:21:51;;;;;;;;;;;23.50;39.90;;;;;;5073825;28;20011;-42
2022/04/01 13:24:19;;;;;;;;;;;23.40;39.80;;;;;;5072755;28;19955;-41
2022/04/01 13:26:46;;;;;;;;;;;23.40;39.80;;;;;;5073777;28;19924;-43
2022/04/01 13:29:13;;;;;;;;;;;23.40;39.90;;;;;;5075609;28;19967;-41
2022/04/01 13:31:40;;;;;;;;;;;23.40;39.90;;;;;;5094297;28;19935;-41
2022/04/01 13:34:08;;;;;;;;;;;23.30;40.00;;;;;;5093480;28;19924;-45
2022/04/01 13:36:35;;;;;;;;;;;23.30;40.00;;;;;;5093419;28;19932;-43
2022/04/01 13:39:08;;;;;;;;;;;23.30;40.10;;;;;;5093728;28;19924;-41
2022/04/01 13:41:35;;;;;;;;;;;23.30;40.10;;;;;;5093778;28;19932;-41
2022/04/01 13:44:03;;;;;;;;;;;23.30;40.10;;;;;;5092996;28;19924;-42
2022/04/01 13:46:30;;;;;;;;;;;23.30;40.10;;;;;;5091984;28;19924;-41
2022/04/01 13:48:57;;;;;;;;;;;23.30;40.10;;;;;;5093837;28;20287;-42
2022/04/01 13:51:24;;;;;;;;;;;23.30;40.20;;;;;;5093573;28;19928;-42
2022/04/01 13:53:51;;;;;;;;;;;23.30;40.20;;;;;;5092952;28;19924;-42
2022/04/01 13:56:18;;;;;;;;;;;23.30;40.20;;;;;;5092975;28;19924;-45
2022/04/01 13:58:45;;;;;;;;;;;23.20;40.20;;;;;;5093336;28;19969;-43
2022/04/01 14:01:12;;;;;;;;;;;23.20;40.30;;;;;;5092614;28;19924;-44
2022/04/01 14:03:39;;;;;;;;;;;23.20;40.30;;;;;;5092935;28;19924;-42
2022/04/01 14:06:07;;;;;;;;;;;23.20;40.30;;;;;;5092808;28;19924;-43
2022/04/01 14:08:34;;;;;;;;;;;23.10;40.30;;;;;;5093421;28;19931;-45
2022/04/01 14:11:05;;;;;;;;;;;23.10;40.40;;;;;;5093206;28;19924;-42
2022/04/01 14:13:33;;;;;;;;;;;23.10;40.50;;;;;;5092144;28;19946;-43
2022/04/01 14:16:20;;;;;;;;;;;23.10;40.50;;;;;;5091861;28;19959;-42
2022/04/01 14:18:47;;;;;;;;;;;23.10;40.60;;;;;;5092934;28;19931;-44
2022/04/01 14:21:14;;;;;;;;;;;23.00;41.20;;;;;;5092017;28;19924;-44
2022/04/01 14:23:41;;;;;;;;;;;23.00;40.60;;;;;;5074385;28;20001;-44
2022/04/01 14:26:09;;;;;;;;;;;23.00;40.60;;;;;;5092751;28;19977;-43
2022/04/01 14:28:36;;;;;;;;;;;23.00;40.70;;;;;;5093212;28;20329;-43
2022/04/01 14:31:04;;;;;;;;;;;23.00;40.80;;;;;;5092605;28;19924;-43
2022/04/01 14:33:31;;;;;;;;;;;22.90;40.70;;;;;;5092506;28;19928;-42
2022/04/01 14:35:59;;;;;;;;;;;22.90;40.80;;;;;;5074111;28;19936;-42
2022/04/01 14:38:26;;;;;;;;;;;22.90;40.80;;;;;;5092477;28;19931;-44
2022/04/01 14:41:12;;;;;;;;;;;22.90;40.90;;;;;;5077861;28;19924;-43
2022/04/01 14:43:39;;;;;;;;;;;22.80;40.90;;;;;;5092516;28;20011;-47
2022/04/01 14:46:07;;;;;;;;;;;22.80;41.00;;;;;;5091719;28;19932;-48